Accueil
METAR-TAF:

METAR-TAF

Aéroports :

Aéroport international de Douchanbé

Douchanbé, Tadjikistan

latitude: 38-33N, longitude: 068-47E, altitude: 803 m

Observation

Le bulletin a été fait il y a 31 minutes, à 19:00 UTC
Vent 2 kt de nord
Température 3°C
Humidité 87%
Pression 1027 hPa
Visibilité: 2100 m
brume, fumée

METAR: UTDD 161900Z 01001MPS 2100 BR FU NSC 03/01 Q1027 R09/D NOSIG RMK QFE701/0935

Heure: 00:31 (19:31 UTC)

Prévision

Le bulletin a été fait il y a 1 heure et 31 minutes, à 18:00 UTC
Prévision valable du 16 à 19 UTC au 17 à 07 UTC
Vent 4 kt de direction variable
Visibilité: 1500 m
Nuages épars à une hauteur de 1100 ft
Nuages épars à une hauteur de 5000 ft, Cumulonimbus.
Nuages fragmentés à une hauteur de 10000 ft
brume, fumée
Temporairement
du 16 à 19 UTC au 17 à 04 UTC
Visibilité: 0600 m
brouillard, fumée

TAF: UTDD 161800Z 1619/1707 VRB02MPS 1500 BR FU SCT011 SCT050CB BKN100 TEMPO 1619/1704 0600 FG FU

Observations et prévisions météorologiques de plus de 4000 aéroports (messages METAR et TAF).

Les stations disponibles sont représentées par des disques jaunes et rouges sur la carte.

Passer la souris dessus pour voir le nom de la station.

Cliquer dessus pour voir les observations et prévisions météorologiques.

Pour changer de carte: cliquez sur les boutons verts avec une croix noire pour zoomer, sur le bouton vert avec un tiret pour effectuer un zoom arrière, ou sur les flèches vertes pour les cartes adjacentes.


METAR-TAF: